sensor_id;sensor_type;location;lat;lon;timestamp;P1;durP1;ratioP1;P2;durP2;ratioP2
55346;SDS011;41218;55.700;38.270;2023-12-22T00:00:10;9.07;;;4.10;;
55346;SDS011;41218;55.700;38.270;2023-12-22T00:05:13;9.57;;;3.90;;
55346;SDS011;41218;55.700;38.270;2023-12-22T00:10:14;13.52;;;5.07;;
55346;SDS011;41218;55.700;38.270;2023-12-22T00:15:15;13.32;;;5.72;;
55346;SDS011;41218;55.700;38.270;2023-12-22T00:20:15;15.95;;;4.80;;
55346;SDS011;41218;55.700;38.270;2023-12-22T00:25:16;15.65;;;4.07;;
55346;SDS011;41218;55.700;38.270;2023-12-22T00:30:17;8.10;;;4.05;;
55346;SDS011;41218;55.700;38.270;2023-12-22T00:35:18;10.40;;;4.55;;
55346;SDS011;41218;55.700;38.270;2023-12-22T00:40:19;9.18;;;4.15;;
55346;SDS011;41218;55.700;38.270;2023-12-22T00:45:23;11.15;;;4.70;;
55346;SDS011;41218;55.700;38.270;2023-12-22T00:50:29;8.77;;;3.90;;
55346;SDS011;41218;55.700;38.270;2023-12-22T00:55:34;9.68;;;4.22;;
55346;SDS011;41218;55.700;38.270;2023-12-22T01:00:36;11.00;;;4.03;;
55346;SDS011;41218;55.700;38.270;2023-12-22T01:05:37;8.05;;;3.92;;
55346;SDS011;41218;55.700;38.270;2023-12-22T01:10:37;13.07;;;4.00;;
55346;SDS011;41218;55.700;38.270;2023-12-22T01:15:41;10.98;;;4.97;;
55346;SDS011;41218;55.700;38.270;2023-12-22T01:20:43;11.68;;;4.80;;
55346;SDS011;41218;55.700;38.270;2023-12-22T01:25:44;13.17;;;5.20;;
55346;SDS011;41218;55.700;38.270;2023-12-22T01:30:45;11.02;;;4.90;;
55346;SDS011;41218;55.700;38.270;2023-12-22T01:35:48;11.93;;;5.07;;
55346;SDS011;41218;55.700;38.270;2023-12-22T01:40:49;13.95;;;5.15;;
55346;SDS011;41218;55.700;38.270;2023-12-22T01:45:50;14.18;;;5.43;;
55346;SDS011;41218;55.700;38.270;2023-12-22T01:50:59;10.57;;;4.93;;
55346;SDS011;41218;55.700;38.270;2023-12-22T01:56:01;12.13;;;5.22;;
55346;SDS011;41218;55.700;38.270;2023-12-22T02:06:06;12.77;;;4.97;;
55346;SDS011;41218;55.700;38.270;2023-12-22T02:16:11;13.03;;;4.80;;
55346;SDS011;41218;55.700;38.270;2023-12-22T02:21:16;13.23;;;5.20;;
55346;SDS011;41218;55.700;38.270;2023-12-22T02:26:20;13.52;;;5.47;;
55346;SDS011;41218;55.700;38.270;2023-12-22T02:31:31;15.07;;;5.22;;
55346;SDS011;41218;55.700;38.270;2023-12-22T02:36:37;10.52;;;4.60;;
55346;SDS011;41218;55.700;38.270;2023-12-22T02:41:39;12.95;;;5.45;;
55346;SDS011;41218;55.700;38.270;2023-12-22T02:46:44;13.75;;;5.30;;
55346;SDS011;41218;55.700;38.270;2023-12-22T02:51:44;12.33;;;4.90;;
55346;SDS011;41218;55.700;38.270;2023-12-22T02:56:46;15.15;;;5.63;;
55346;SDS011;41218;55.700;38.270;2023-12-22T03:01:50;12.90;;;5.40;;
55346;SDS011;41218;55.700;38.270;2023-12-22T03:06:51;13.95;;;5.47;;
55346;SDS011;41218;55.700;38.270;2023-12-22T03:11:51;10.73;;;4.83;;
55346;SDS011;41218;55.700;38.270;2023-12-22T03:16:54;12.75;;;5.13;;
55346;SDS011;41218;55.700;38.270;2023-12-22T03:21:55;13.93;;;5.45;;
55346;SDS011;41218;55.700;38.270;2023-12-22T03:26:59;12.25;;;4.97;;
55346;SDS011;41218;55.700;38.270;2023-12-22T03:31:59;15.38;;;5.97;;
55346;SDS011;41218;55.700;38.270;2023-12-22T03:37:00;12.47;;;5.23;;
55346;SDS011;41218;55.700;38.270;2023-12-22T03:42:01;15.70;;;6.20;;
55346;SDS011;41218;55.700;38.270;2023-12-22T03:47:02;13.73;;;6.18;;
55346;SDS011;41218;55.700;38.270;2023-12-22T03:52:03;15.25;;;5.85;;
55346;SDS011;41218;55.700;38.270;2023-12-22T03:57:04;17.45;;;6.28;;
55346;SDS011;41218;55.700;38.270;2023-12-22T04:02:04;16.50;;;6.65;;
55346;SDS011;41218;55.700;38.270;2023-12-22T04:07:05;15.00;;;6.80;;
55346;SDS011;41218;55.700;38.270;2023-12-22T04:12:06;17.50;;;6.95;;
55346;SDS011;41218;55.700;38.270;2023-12-22T04:17:07;14.75;;;5.97;;
55346;SDS011;41218;55.700;38.270;2023-12-22T04:22:08;18.45;;;6.85;;
55346;SDS011;41218;55.700;38.270;2023-12-22T04:27:08;18.27;;;6.80;;
55346;SDS011;41218;55.700;38.270;2023-12-22T04:32:09;17.90;;;6.38;;
55346;SDS011;41218;55.700;38.270;2023-12-22T04:37:10;14.50;;;6.82;;
55346;SDS011;41218;55.700;38.270;2023-12-22T04:42:11;19.20;;;6.35;;
55346;SDS011;41218;55.700;38.270;2023-12-22T04:47:11;17.73;;;6.53;;
55346;SDS011;41218;55.700;38.270;2023-12-22T04:52:13;17.35;;;7.03;;
55346;SDS011;41218;55.700;38.270;2023-12-22T04:57:14;17.57;;;6.97;;
55346;SDS011;41218;55.700;38.270;2023-12-22T05:02:14;18.27;;;7.10;;
55346;SDS011;41218;55.700;38.270;2023-12-22T05:07:15;18.05;;;7.32;;
55346;SDS011;41218;55.700;38.270;2023-12-22T05:12:18;21.57;;;6.60;;
55346;SDS011;41218;55.700;38.270;2023-12-22T05:17:20;15.25;;;6.10;;
55346;SDS011;41218;55.700;38.270;2023-12-22T05:22:20;14.53;;;6.13;;
55346;SDS011;41218;55.700;38.270;2023-12-22T05:27:25;17.23;;;6.45;;
55346;SDS011;41218;55.700;38.270;2023-12-22T05:32:27;16.15;;;6.22;;
55346;SDS011;41218;55.700;38.270;2023-12-22T05:37:27;16.63;;;6.53;;
55346;SDS011;41218;55.700;38.270;2023-12-22T05:42:28;16.20;;;6.30;;
55346;SDS011;41218;55.700;38.270;2023-12-22T05:47:29;17.80;;;6.45;;
55346;SDS011;41218;55.700;38.270;2023-12-22T05:52:29;17.87;;;7.20;;
55346;SDS011;41218;55.700;38.270;2023-12-22T05:57:30;17.23;;;8.13;;
55346;SDS011;41218;55.700;38.270;2023-12-22T06:02:31;19.30;;;7.63;;
55346;SDS011;41218;55.700;38.270;2023-12-22T06:07:31;18.40;;;7.87;;
55346;SDS011;41218;55.700;38.270;2023-12-22T06:12:35;22.45;;;9.30;;
55346;SDS011;41218;55.700;38.270;2023-12-22T06:17:36;18.65;;;8.15;;
55346;SDS011;41218;55.700;38.270;2023-12-22T06:22:37;21.80;;;8.57;;
55346;SDS011;41218;55.700;38.270;2023-12-22T06:27:38;22.00;;;9.05;;
55346;SDS011;41218;55.700;38.270;2023-12-22T06:32:39;18.10;;;7.77;;
55346;SDS011;41218;55.700;38.270;2023-12-22T06:37:41;22.02;;;8.35;;
55346;SDS011;41218;55.700;38.270;2023-12-22T06:42:42;20.25;;;8.68;;
55346;SDS011;41218;55.700;38.270;2023-12-22T06:47:43;22.07;;;8.90;;
55346;SDS011;41218;55.700;38.270;2023-12-22T06:52:44;23.55;;;8.95;;
55346;SDS011;41218;55.700;38.270;2023-12-22T06:57:44;20.57;;;7.93;;
55346;SDS011;41218;55.700;38.270;2023-12-22T07:02:46;23.15;;;8.70;;
55346;SDS011;41218;55.700;38.270;2023-12-22T07:07:47;24.03;;;8.60;;
55346;SDS011;41218;55.700;38.270;2023-12-22T07:12:56;22.05;;;8.70;;
55346;SDS011;41218;55.700;38.270;2023-12-22T07:17:57;19.73;;;8.13;;
55346;SDS011;41218;55.700;38.270;2023-12-22T07:22:58;20.27;;;8.52;;
55346;SDS011;41218;55.700;38.270;2023-12-22T07:28:02;19.27;;;8.15;;
55346;SDS011;41218;55.700;38.270;2023-12-22T07:33:03;21.08;;;7.95;;
55346;SDS011;41218;55.700;38.270;2023-12-22T07:38:04;21.88;;;8.20;;
55346;SDS011;41218;55.700;38.270;2023-12-22T07:43:05;22.38;;;8.05;;
55346;SDS011;41218;55.700;38.270;2023-12-22T07:48:07;19.00;;;8.18;;
55346;SDS011;41218;55.700;38.270;2023-12-22T07:53:10;19.85;;;7.80;;
55346;SDS011;41218;55.700;38.270;2023-12-22T07:58:10;20.30;;;8.27;;
55346;SDS011;41218;55.700;38.270;2023-12-22T08:03:11;20.35;;;8.27;;
55346;SDS011;41218;55.700;38.270;2023-12-22T08:08:12;18.83;;;7.50;;
55346;SDS011;41218;55.700;38.270;2023-12-22T08:13:13;14.25;;;6.22;;
55346;SDS011;41218;55.700;38.270;2023-12-22T08:18:14;19.20;;;6.85;;
55346;SDS011;41218;55.700;38.270;2023-12-22T08:23:15;18.77;;;7.40;;
55346;SDS011;41218;55.700;38.270;2023-12-22T08:28:17;14.75;;;6.40;;
55346;SDS011;41218;55.700;38.270;2023-12-22T08:33:19;14.00;;;6.15;;
55346;SDS011;41218;55.700;38.270;2023-12-22T08:38:24;14.07;;;5.75;;
55346;SDS011;41218;55.700;38.270;2023-12-22T08:43:26;13.00;;;5.28;;
55346;SDS011;41218;55.700;38.270;2023-12-22T08:48:27;14.35;;;6.50;;
55346;SDS011;41218;55.700;38.270;2023-12-22T08:53:28;16.13;;;5.97;;
55346;SDS011;41218;55.700;38.270;2023-12-22T08:58:33;12.75;;;5.75;;
55346;SDS011;41218;55.700;38.270;2023-12-22T09:03:36;8.65;;;4.00;;
55346;SDS011;41218;55.700;38.270;2023-12-22T09:08:44;14.38;;;5.78;;
55346;SDS011;41218;55.700;38.270;2023-12-22T09:13:48;11.52;;;4.78;;
55346;SDS011;41218;55.700;38.270;2023-12-22T09:18:49;9.93;;;4.78;;
55346;SDS011;41218;55.700;38.270;2023-12-22T09:23:50;11.10;;;4.75;;
55346;SDS011;41218;55.700;38.270;2023-12-22T09:28:51;10.93;;;4.72;;
55346;SDS011;41218;55.700;38.270;2023-12-22T09:33:51;10.90;;;5.17;;
55346;SDS011;41218;55.700;38.270;2023-12-22T09:38:55;11.65;;;4.45;;
55346;SDS011;41218;55.700;38.270;2023-12-22T09:43:56;13.10;;;4.87;;
55346;SDS011;41218;55.700;38.270;2023-12-22T09:48:59;9.60;;;4.30;;
55346;SDS011;41218;55.700;38.270;2023-12-22T09:59:06;12.68;;;4.90;;
55346;SDS011;41218;55.700;38.270;2023-12-22T10:04:06;10.02;;;4.78;;
55346;SDS011;41218;55.700;38.270;2023-12-22T10:09:07;13.48;;;5.18;;
55346;SDS011;41218;55.700;38.270;2023-12-22T10:14:14;11.63;;;4.75;;
55346;SDS011;41218;55.700;38.270;2023-12-22T10:19:22;6.20;;;2.90;;
55346;SDS011;41218;55.700;38.270;2023-12-22T10:29:43;9.33;;;4.10;;
55346;SDS011;41218;55.700;38.270;2023-12-22T10:34:44;8.55;;;3.72;;
55346;SDS011;41218;55.700;38.270;2023-12-22T10:39:45;11.77;;;4.30;;
55346;SDS011;41218;55.700;38.270;2023-12-22T10:44:49;10.35;;;4.28;;
55346;SDS011;41218;55.700;38.270;2023-12-22T10:49:53;12.45;;;4.45;;
55346;SDS011;41218;55.700;38.270;2023-12-22T10:54:54;11.00;;;4.40;;
55346;SDS011;41218;55.700;38.270;2023-12-22T10:59:58;11.25;;;4.75;;
55346;SDS011;41218;55.700;38.270;2023-12-22T11:05:04;12.80;;;4.63;;
55346;SDS011;41218;55.700;38.270;2023-12-22T11:10:07;9.75;;;4.70;;
55346;SDS011;41218;55.700;38.270;2023-12-22T11:15:10;10.90;;;4.60;;
55346;SDS011;41218;55.700;38.270;2023-12-22T11:20:15;12.88;;;5.28;;
55346;SDS011;41218;55.700;38.270;2023-12-22T11:25:16;14.25;;;5.68;;
55346;SDS011;41218;55.700;38.270;2023-12-22T11:30:28;10.05;;;5.10;;
55346;SDS011;41218;55.700;38.270;2023-12-22T11:35:33;13.88;;;5.93;;
55346;SDS011;41218;55.700;38.270;2023-12-22T11:40:37;15.07;;;6.28;;
55346;SDS011;41218;55.700;38.270;2023-12-22T11:45:41;17.90;;;6.30;;
55346;SDS011;41218;55.700;38.270;2023-12-22T11:50:43;16.75;;;5.72;;
55346;SDS011;41218;55.700;38.270;2023-12-22T11:55:56;17.40;;;5.38;;
55346;SDS011;41218;55.700;38.270;2023-12-22T12:01:11;15.13;;;5.93;;
55346;SDS011;41218;55.700;38.270;2023-12-22T12:17:09;16.02;;;6.43;;
55346;SDS011;41218;55.700;38.270;2023-12-22T12:22:15;16.83;;;5.85;;
55346;SDS011;41218;55.700;38.270;2023-12-22T12:27:18;12.00;;;5.32;;
55346;SDS011;41218;55.700;38.270;2023-12-22T12:32:25;14.98;;;5.57;;
55346;SDS011;41218;55.700;38.270;2023-12-22T12:37:28;12.15;;;5.13;;
55346;SDS011;41218;55.700;38.270;2023-12-22T12:42:29;12.15;;;4.80;;
55346;SDS011;41218;55.700;38.270;2023-12-22T12:47:32;13.30;;;5.75;;
55346;SDS011;41218;55.700;38.270;2023-12-22T12:52:40;16.20;;;6.65;;
55346;SDS011;41218;55.700;38.270;2023-12-22T12:57:52;18.38;;;7.38;;
55346;SDS011;41218;55.700;38.270;2023-12-22T13:03:03;18.95;;;7.32;;
55346;SDS011;41218;55.700;38.270;2023-12-22T13:08:14;24.60;;;8.93;;
55346;SDS011;41218;55.700;38.270;2023-12-22T13:13:14;19.98;;;7.70;;
55346;SDS011;41218;55.700;38.270;2023-12-22T13:18:15;18.60;;;6.60;;
55346;SDS011;41218;55.700;38.270;2023-12-22T13:23:18;17.25;;;6.82;;
55346;SDS011;41218;55.700;38.270;2023-12-22T13:28:26;21.63;;;7.28;;
55346;SDS011;41218;55.700;38.270;2023-12-22T13:33:33;20.92;;;7.15;;
55346;SDS011;41218;55.700;38.270;2023-12-22T13:38:34;19.55;;;6.68;;
55346;SDS011;41218;55.700;38.270;2023-12-22T13:43:48;25.95;;;7.20;;
55346;SDS011;41218;55.700;38.270;2023-12-22T13:48:49;24.70;;;7.78;;
55346;SDS011;41218;55.700;38.270;2023-12-22T13:53:54;17.55;;;6.93;;
55346;SDS011;41218;55.700;38.270;2023-12-22T13:58:59;18.17;;;5.78;;
55346;SDS011;41218;55.700;38.270;2023-12-22T14:04:02;11.95;;;5.20;;
55346;SDS011;41218;55.700;38.270;2023-12-22T14:09:03;13.95;;;5.43;;
55346;SDS011;41218;55.700;38.270;2023-12-22T14:14:04;14.57;;;5.50;;
55346;SDS011;41218;55.700;38.270;2023-12-22T14:19:05;13.50;;;5.45;;
55346;SDS011;41218;55.700;38.270;2023-12-22T14:24:09;14.75;;;6.47;;
55346;SDS011;41218;55.700;38.270;2023-12-22T14:29:14;16.38;;;6.40;;
55346;SDS011;41218;55.700;38.270;2023-12-22T14:34:17;12.18;;;5.25;;
55346;SDS011;41218;55.700;38.270;2023-12-22T14:39:20;17.75;;;6.82;;
55346;SDS011;41218;55.700;38.270;2023-12-22T14:44:33;22.48;;;8.27;;
55346;SDS011;41218;55.700;38.270;2023-12-22T14:49:42;22.58;;;7.55;;
55346;SDS011;41218;55.700;38.270;2023-12-22T14:54:43;22.88;;;7.82;;
55346;SDS011;41218;55.700;38.270;2023-12-22T14:59:46;18.77;;;7.55;;
55346;SDS011;41218;55.700;38.270;2023-12-22T15:04:46;24.05;;;8.55;;
55346;SDS011;41218;55.700;38.270;2023-12-22T15:09:50;25.38;;;9.18;;
55346;SDS011;41218;55.700;38.270;2023-12-22T15:14:51;26.42;;;10.15;;
55346;SDS011;41218;55.700;38.270;2023-12-22T15:19:54;27.95;;;10.40;;
55346;SDS011;41218;55.700;38.270;2023-12-22T15:24:58;28.27;;;10.13;;
55346;SDS011;41218;55.700;38.270;2023-12-22T15:29:59;23.00;;;9.10;;
55346;SDS011;41218;55.700;38.270;2023-12-22T15:35:00;28.42;;;10.15;;
55346;SDS011;41218;55.700;38.270;2023-12-22T15:40:01;24.65;;;9.52;;
55346;SDS011;41218;55.700;38.270;2023-12-22T15:45:01;21.50;;;9.25;;
55346;SDS011;41218;55.700;38.270;2023-12-22T15:50:03;25.33;;;10.07;;
55346;SDS011;41218;55.700;38.270;2023-12-22T16:00:05;27.83;;;9.17;;
55346;SDS011;41218;55.700;38.270;2023-12-22T16:05:07;24.35;;;9.68;;
55346;SDS011;41218;55.700;38.270;2023-12-22T16:10:11;29.15;;;10.20;;
55346;SDS011;41218;55.700;38.270;2023-12-22T16:15:16;31.42;;;11.55;;
55346;SDS011;41218;55.700;38.270;2023-12-22T16:20:17;29.27;;;10.80;;
55346;SDS011;41218;55.700;38.270;2023-12-22T16:25:18;30.35;;;11.80;;
55346;SDS011;41218;55.700;38.270;2023-12-22T16:30:21;35.97;;;13.20;;
55346;SDS011;41218;55.700;38.270;2023-12-22T16:35:22;41.53;;;14.35;;
55346;SDS011;41218;55.700;38.270;2023-12-22T16:40:25;39.40;;;14.30;;
55346;SDS011;41218;55.700;38.270;2023-12-22T16:45:26;38.50;;;13.50;;
55346;SDS011;41218;55.700;38.270;2023-12-22T16:50:27;39.42;;;14.30;;
55346;SDS011;41218;55.700;38.270;2023-12-22T16:55:28;46.37;;;14.13;;
55346;SDS011;41218;55.700;38.270;2023-12-22T17:00:34;34.33;;;12.27;;
55346;SDS011;41218;55.700;38.270;2023-12-22T17:05:35;35.30;;;12.57;;
55346;SDS011;41218;55.700;38.270;2023-12-22T17:10:39;31.40;;;10.73;;
55346;SDS011;41218;55.700;38.270;2023-12-22T17:15:40;30.63;;;11.57;;
55346;SDS011;41218;55.700;38.270;2023-12-22T17:20:45;23.15;;;8.15;;
55346;SDS011;41218;55.700;38.270;2023-12-22T17:25:46;20.35;;;8.50;;
55346;SDS011;41218;55.700;38.270;2023-12-22T17:30:55;25.08;;;9.15;;
55346;SDS011;41218;55.700;38.270;2023-12-22T17:36:13;24.10;;;9.05;;
55346;SDS011;41218;55.700;38.270;2023-12-22T17:41:27;25.65;;;7.57;;
55346;SDS011;41218;55.700;38.270;2023-12-22T17:46:28;28.65;;;9.00;;
55346;SDS011;41218;55.700;38.270;2023-12-22T17:51:32;27.02;;;8.88;;
55346;SDS011;41218;55.700;38.270;2023-12-22T17:56:34;26.77;;;9.50;;
55346;SDS011;41218;55.700;38.270;2023-12-22T18:01:39;22.88;;;9.15;;
55346;SDS011;41218;55.700;38.270;2023-12-22T18:06:45;26.77;;;8.50;;
55346;SDS011;41218;55.700;38.270;2023-12-22T18:11:49;29.60;;;9.07;;
55346;SDS011;41218;55.700;38.270;2023-12-22T18:16:55;26.08;;;9.00;;
55346;SDS011;41218;55.700;38.270;2023-12-22T18:21:56;30.45;;;10.15;;
55346;SDS011;41218;55.700;38.270;2023-12-22T18:27:02;33.58;;;10.60;;
55346;SDS011;41218;55.700;38.270;2023-12-22T18:32:03;28.70;;;10.85;;
55346;SDS011;41218;55.700;38.270;2023-12-22T18:37:04;27.30;;;10.23;;
55346;SDS011;41218;55.700;38.270;2023-12-22T18:42:09;33.60;;;10.05;;
55346;SDS011;41218;55.700;38.270;2023-12-22T18:47:13;32.75;;;11.05;;
55346;SDS011;41218;55.700;38.270;2023-12-22T18:52:16;31.90;;;11.25;;
55346;SDS011;41218;55.700;38.270;2023-12-22T18:57:17;35.50;;;11.27;;
55346;SDS011;41218;55.700;38.270;2023-12-22T19:02:17;35.85;;;11.88;;
55346;SDS011;41218;55.700;38.270;2023-12-22T19:07:21;37.03;;;11.27;;
55346;SDS011;41218;55.700;38.270;2023-12-22T19:12:24;35.47;;;11.35;;
55346;SDS011;41218;55.700;38.270;2023-12-22T19:17:27;31.55;;;10.35;;
55346;SDS011;41218;55.700;38.270;2023-12-22T19:22:30;34.70;;;10.40;;
55346;SDS011;41218;55.700;38.270;2023-12-22T19:27:31;36.30;;;10.45;;
55346;SDS011;41218;55.700;38.270;2023-12-22T19:32:35;33.05;;;10.43;;
55346;SDS011;41218;55.700;38.270;2023-12-22T19:37:38;29.55;;;10.18;;
55346;SDS011;41218;55.700;38.270;2023-12-22T19:42:42;29.83;;;11.13;;
55346;SDS011;41218;55.700;38.270;2023-12-22T19:47:47;33.00;;;11.38;;
55346;SDS011;41218;55.700;38.270;2023-12-22T19:52:53;32.03;;;11.07;;
55346;SDS011;41218;55.700;38.270;2023-12-22T19:58:08;35.53;;;11.70;;
55346;SDS011;41218;55.700;38.270;2023-12-22T20:03:12;34.80;;;11.27;;
55346;SDS011;41218;55.700;38.270;2023-12-22T20:08:12;38.47;;;11.52;;
55346;SDS011;41218;55.700;38.270;2023-12-22T20:18:33;27.60;;;10.18;;
55346;SDS011;41218;55.700;38.270;2023-12-22T20:23:34;30.50;;;10.95;;
55346;SDS011;41218;55.700;38.270;2023-12-22T20:28:35;30.33;;;10.25;;
55346;SDS011;41218;55.700;38.270;2023-12-22T20:33:38;32.17;;;11.65;;
55346;SDS011;41218;55.700;38.270;2023-12-22T20:38:56;29.60;;;10.35;;
55346;SDS011;41218;55.700;38.270;2023-12-22T20:43:59;28.55;;;10.45;;
55346;SDS011;41218;55.700;38.270;2023-12-22T20:49:00;28.47;;;10.73;;
55346;SDS011;41218;55.700;38.270;2023-12-22T20:54:03;28.95;;;10.60;;
55346;SDS011;41218;55.700;38.270;2023-12-22T20:59:07;29.00;;;10.45;;
55346;SDS011;41218;55.700;38.270;2023-12-22T21:04:11;28.02;;;10.73;;
55346;SDS011;41218;55.700;38.270;2023-12-22T21:09:17;30.60;;;11.35;;
55346;SDS011;41218;55.700;38.270;2023-12-22T21:14:17;31.17;;;12.20;;
55346;SDS011;41218;55.700;38.270;2023-12-22T21:19:18;35.05;;;13.85;;
55346;SDS011;41218;55.700;38.270;2023-12-22T21:24:19;42.53;;;16.35;;
55346;SDS011;41218;55.700;38.270;2023-12-22T21:29:20;36.10;;;14.85;;
55346;SDS011;41218;55.700;38.270;2023-12-22T21:34:21;37.60;;;14.82;;
55346;SDS011;41218;55.700;38.270;2023-12-22T21:39:22;40.58;;;15.07;;
55346;SDS011;41218;55.700;38.270;2023-12-22T21:44:27;34.25;;;13.43;;
55346;SDS011;41218;55.700;38.270;2023-12-22T21:49:28;37.75;;;13.38;;
55346;SDS011;41218;55.700;38.270;2023-12-22T21:54:39;38.03;;;13.82;;
55346;SDS011;41218;55.700;38.270;2023-12-22T21:59:41;36.38;;;13.57;;
55346;SDS011;41218;55.700;38.270;2023-12-22T22:09:42;34.77;;;15.20;;
55346;SDS011;41218;55.700;38.270;2023-12-22T22:14:43;39.17;;;14.30;;
55346;SDS011;41218;55.700;38.270;2023-12-22T22:19:47;35.72;;;13.43;;
55346;SDS011;41218;55.700;38.270;2023-12-22T22:24:50;38.40;;;13.50;;
55346;SDS011;41218;55.700;38.270;2023-12-22T22:29:51;34.58;;;14.23;;
55346;SDS011;41218;55.700;38.270;2023-12-22T22:34:56;33.63;;;13.50;;
55346;SDS011;41218;55.700;38.270;2023-12-22T22:39:56;38.37;;;14.27;;
55346;SDS011;41218;55.700;38.270;2023-12-22T22:44:57;38.53;;;14.45;;
55346;SDS011;41218;55.700;38.270;2023-12-22T22:50:06;35.22;;;13.70;;
55346;SDS011;41218;55.700;38.270;2023-12-22T22:55:16;34.35;;;13.38;;
55346;SDS011;41218;55.700;38.270;2023-12-22T23:00:17;38.00;;;14.85;;
55346;SDS011;41218;55.700;38.270;2023-12-22T23:05:35;39.95;;;15.93;;
55346;SDS011;41218;55.700;38.270;2023-12-22T23:10:38;41.53;;;15.45;;
55346;SDS011;41218;55.700;38.270;2023-12-22T23:15:39;39.25;;;15.02;;
55346;SDS011;41218;55.700;38.270;2023-12-22T23:20:43;40.17;;;15.35;;
55346;SDS011;41218;55.700;38.270;2023-12-22T23:25:44;41.67;;;15.50;;
55346;SDS011;41218;55.700;38.270;2023-12-22T23:30:48;37.42;;;14.45;;
55346;SDS011;41218;55.700;38.270;2023-12-22T23:35:50;41.55;;;15.25;;
55346;SDS011;41218;55.700;38.270;2023-12-22T23:40:51;41.78;;;14.75;;
55346;SDS011;41218;55.700;38.270;2023-12-22T23:45:52;45.65;;;15.43;;
55346;SDS011;41218;55.700;38.270;2023-12-22T23:50:58;39.95;;;15.27;;
55346;SDS011;41218;55.700;38.270;2023-12-22T23:55:59;37.38;;;13.80;;
